Time;durP1;ratioP1;P1;durP2;ratioP2;P2;SDS_P1;SDS_P2;PMS_P1;PMS_P2;Temp;Humidity;BMP_temperature;BMP_pressure;BME280_temperature;BME280_humidity;BME280_pressure;Samples;Min_cycle;Max_cycle;Signal;HPM_P1;HPM_P2
2023/11/02 00:02:22;;;;;;;1.30;0.03;;;;;;;1.39;72.51;100518.25;5038864;28;20134;-72
2023/11/02 00:04:49;;;;;;;0.93;0.00;;;;;;;1.37;72.50;100517.38;5038063;28;20049;-72
2023/11/02 00:07:16;;;;;;;0.28;0.10;;;;;;;1.36;72.62;100513.06;5038933;28;20053;-73
2023/11/02 00:09:43;;;;;;;1.48;0.10;;;;;;;1.36;72.81;100507.91;5039156;28;20521;-72
2023/11/02 00:12:14;;;;;;;0.00;0.00;;;;;;;1.35;72.94;100511.34;5037422;28;20466;-73
2023/11/02 00:14:46;;;;;;;0.10;0.10;;;;;;;1.34;72.79;100497.59;5039723;28;20049;-72
2023/11/02 00:17:58;;;;;;;0.10;0.03;;;;;;;1.33;72.59;100495.84;5033756;28;20048;-73
2023/11/02 00:20:39;;;;;;;2.85;0.10;;;;;;;1.34;72.62;100496.75;5011953;28;20635;-74
2023/11/02 00:23:07;;;;;;;0.25;0.15;;;;;;;1.31;73.11;100500.13;5036167;28;20052;-73
2023/11/02 00:25:50;;;;;;;0.20;0.10;;;;;;;1.31;73.32;100502.72;5044468;28;20044;-72
2023/11/02 00:28:17;;;;;;;0.20;0.10;;;;;;;1.32;73.42;100516.44;5039683;28;20128;-73
2023/11/02 00:30:46;;;;;;;0.10;0.10;;;;;;;1.31;73.38;100501.84;5047286;28;20044;-73
2023/11/02 00:33:14;;;;;;;0.88;0.15;;;;;;;1.31;73.16;100494.13;5042489;28;20118;-72
2023/11/02 00:35:47;;;;;;;0.25;0.10;;;;;;;1.30;72.95;100503.53;5037040;28;20044;-72
2023/11/02 00:38:19;;;;;;;0.20;0.10;;;;;;;1.30;73.25;100503.53;5043115;28;20415;-72
2023/11/02 00:40:46;;;;;;;0.35;0.13;;;;;;;1.29;73.23;100501.81;5033847;28;20449;-72
2023/11/02 00:43:13;;;;;;;1.73;0.10;;;;;;;1.30;73.13;100500.09;5038172;28;20065;-72
2023/11/02 00:45:42;;;;;;;0.10;0.10;;;;;;;1.31;73.25;100509.56;5035821;28;20048;-72
2023/11/02 00:48:16;;;;;;;0.32;0.10;;;;;;;1.31;73.44;100505.28;5037934;28;20041;-72
2023/11/02 00:51:17;;;;;;;0.40;0.10;;;;;;;1.32;73.47;100506.16;5038760;28;20745;-72
2023/11/02 00:53:47;;;;;;;0.10;0.10;;;;;;;1.31;72.95;100501.84;5033780;28;20706;-69
2023/11/02 00:56:17;;;;;;;0.85;0.10;;;;;;;1.32;73.85;100508.72;5036976;28;20129;-69
2023/11/02 00:58:49;;;;;;;0.45;0.10;;;;;;;1.32;73.33;100495.84;5039463;28;20091;-69
2023/11/02 01:01:19;;;;;;;0.20;0.10;;;;;;;1.32;73.41;100486.41;5035957;28;20051;-68
2023/11/02 01:03:49;;;;;;;0.20;0.20;;;;;;;1.32;73.54;100486.41;5034933;28;20129;-69
2023/11/02 01:06:30;;;;;;;0.40;0.30;;;;;;;1.32;73.50;100475.25;5038209;28;20399;-69
2023/11/02 01:09:02;;;;;;;0.17;0.13;;;;;;;1.33;73.17;100484.69;5038548;28;20056;-69
2023/11/02 01:11:31;;;;;;;0.10;0.10;;;;;;;1.32;73.46;100481.28;5038276;28;20048;-69
2023/11/02 01:13:58;;;;;;;0.38;0.20;;;;;;;1.32;73.18;100470.97;5033133;28;20053;-69
2023/11/02 01:16:27;;;;;;;0.20;0.20;;;;;;;1.33;73.74;100474.41;5033664;28;20058;-69
2023/11/02 01:18:57;;;;;;;0.17;0.10;;;;;;;1.34;73.25;100465.88;5038128;28;20041;-69
2023/11/02 01:21:26;;;;;;;0.20;0.20;;;;;;;1.32;73.55;100465.84;5033991;28;20520;-69
2023/11/02 01:24:02;;;;;;;2.15;0.20;;;;;;;1.34;73.42;100473.59;5032810;28;20046;-69
2023/11/02 01:26:59;;;;;;;0.35;0.13;;;;;;;1.35;73.85;100480.44;5036738;28;20064;-69
2023/11/02 01:29:28;;;;;;;0.25;0.10;;;;;;;1.34;73.72;100476.16;5046516;28;20494;-69
2023/11/02 01:31:55;;;;;;;0.10;0.10;;;;;;;1.33;73.22;100467.56;5034852;28;20061;-69
2023/11/02 01:34:23;;;;;;;2.47;0.20;;;;;;;1.26;73.18;100452.03;5036662;28;20425;-69
2023/11/02 01:36:54;;;;;;;0.10;0.10;;;;;;;1.33;73.41;100461.53;5034584;28;20046;-69
2023/11/02 01:39:51;;;;;;;0.20;0.10;;;;;;;1.34;73.40;100468.44;5033865;28;20406;-69
2023/11/02 01:42:27;;;;;;;1.23;0.28;;;;;;;1.33;73.80;100472.69;5038820;28;20049;-72
2023/11/02 01:45:05;;;;;;;0.32;0.20;;;;;;;1.33;73.23;100470.13;5040242;28;20505;-72
2023/11/02 01:47:53;;;;;;;1.38;0.68;;;;;;;1.32;73.85;100460.69;5042381;28;20057;-72
2023/11/02 01:50:31;;;;;;;0.63;0.10;;;;;;;1.33;73.70;100467.56;5029668;28;20063;-72
2023/11/02 01:53:22;;;;;;;0.30;0.10;;;;;;;1.32;73.99;100460.69;5041563;28;20082;-71
2023/11/02 01:56:26;;;;;;;0.10;0.10;;;;;;;1.31;73.92;100469.25;5040427;28;20049;-72
2023/11/02 01:59:04;;;;;;;0.20;0.10;;;;;;;1.31;73.30;100468.41;5026440;28;20490;-72
2023/11/02 02:01:35;;;;;;;0.10;0.10;;;;;;;1.29;73.37;100465.78;5041619;28;20053;-72
2023/11/02 02:04:15;;;;;;;1.77;0.10;;;;;;;1.29;74.01;100464.94;5041473;28;20049;-68
2023/11/02 02:06:51;;;;;;;0.10;0.10;;;;;;;1.29;73.56;100462.34;5039382;28;20433;-68
2023/11/02 02:09:44;;;;;;;0.40;0.10;;;;;;;1.29;74.13;100463.22;5038037;28;20059;-68
2023/11/02 02:12:17;;;;;;;0.10;0.10;;;;;;;1.29;73.80;100464.94;5044628;28;20418;-68
2023/11/02 02:15:02;;;;;;;3.80;0.50;;;;;;;1.28;73.55;100461.50;5032110;28;20045;-68
2023/11/02 02:17:37;;;;;;;0.15;0.08;;;;;;;1.29;73.63;100470.06;5041831;28;20128;-68
2023/11/02 02:20:09;;;;;;;0.30;0.10;;;;;;;1.29;74.07;100465.78;5035747;28;20056;-68
2023/11/02 02:22:43;;;;;;;1.85;0.10;;;;;;;1.28;74.07;100464.06;5044516;28;20142;-68
2023/11/02 02:25:21;;;;;;;0.10;0.10;;;;;;;1.30;73.64;100461.50;5039431;28;20469;-69
2023/11/02 02:28:35;;;;;;;1.67;0.10;;;;;;;1.30;74.09;100458.94;5046300;28;20049;-68
2023/11/02 02:31:13;;;;;;;0.30;0.20;;;;;;;1.30;74.09;100446.06;5037274;28;20060;-68
2023/11/02 02:34:07;;;;;;;2.47;0.10;;;;;;;1.31;73.63;100447.81;5037118;28;20053;-68
2023/11/02 02:36:44;;;;;;;0.15;0.10;;;;;;;1.30;73.83;100440.91;5043771;28;20040;-68
2023/11/02 02:39:18;;;;;;;0.20;0.10;;;;;;;1.31;74.36;100437.53;5041214;28;20056;-68
2023/11/02 02:41:48;;;;;;;0.30;0.10;;;;;;;1.31;74.31;100440.94;5040288;28;20140;-68
2023/11/02 02:44:18;;;;;;;0.55;0.10;;;;;;;1.32;74.00;100441.81;5038978;28;20430;-68
2023/11/02 02:46:45;;;;;;;0.30;0.10;;;;;;;1.32;74.36;100440.09;5039002;28;20056;-69
2023/11/02 02:49:12;;;;;;;0.10;0.10;;;;;;;1.33;74.28;100436.66;5046541;28;20053;-68
2023/11/02 02:51:48;;;;;;;0.20;0.17;;;;;;;1.35;73.69;100439.28;5034094;28;20049;-71
2023/11/02 02:54:18;;;;;;;0.10;0.10;;;;;;;1.34;74.27;100443.56;5039639;28;20061;-73
2023/11/02 02:56:48;;;;;;;1.75;0.25;;;;;;;1.36;73.76;100446.13;5037162;28;20418;-72
2023/11/02 02:59:18;;;;;;;0.20;0.10;;;;;;;1.37;74.01;100447.00;5037012;28;20107;-73
2023/11/02 03:01:47;;;;;;;0.30;0.10;;;;;;;1.38;74.61;100452.19;5039665;28;20059;-72
2023/11/02 03:04:18;;;;;;;0.50;0.10;;;;;;;1.38;73.97;100453.91;5042919;28;20509;-72
2023/11/02 03:06:50;;;;;;;0.28;0.10;;;;;;;1.39;74.22;100461.63;5032623;28;20402;-72
2023/11/02 03:09:21;;;;;;;1.00;0.17;;;;;;;1.39;74.68;100451.34;5041328;28;20076;-72
2023/11/02 03:11:54;;;;;;;0.35;0.10;;;;;;;1.40;74.49;100455.66;5035845;28;20411;-72
2023/11/02 03:14:22;;;;;;;0.20;0.10;;;;;;;1.41;74.28;100462.53;5033731;28;20045;-71
2023/11/02 03:16:51;;;;;;;0.10;0.10;;;;;;;1.41;74.33;100461.66;5039523;28;20056;-71
2023/11/02 03:19:44;;;;;;;0.10;0.10;;;;;;;1.43;74.23;100458.28;5037535;28;20553;-72
2023/11/02 03:22:15;;;;;;;0.30;0.13;;;;;;;1.43;73.98;100463.41;5041934;28;20052;-72
2023/11/02 03:25:00;;;;;;;0.17;0.10;;;;;;;1.45;74.09;100460.84;5041618;28;20053;-72
2023/11/02 03:27:37;;;;;;;0.33;0.33;;;;;;;1.46;74.25;100467.75;5033119;28;20053;-74
2023/11/02 03:30:09;;;;;;;0.10;0.10;;;;;;;1.46;74.29;100458.31;5038110;28;20041;-72
2023/11/02 03:32:48;;;;;;;0.30;0.20;;;;;;;1.46;74.53;100455.72;5041356;28;20544;-73
2023/11/02 03:35:20;;;;;;;0.20;0.10;;;;;;;1.48;74.24;100445.44;5041343;28;20056;-73
2023/11/02 03:38:09;;;;;;;0.30;0.10;;;;;;;1.49;74.01;100453.19;5035479;28;20050;-72
2023/11/02 03:40:54;;;;;;;1.75;0.10;;;;;;;1.39;74.39;100435.88;5039632;28;20409;-72
2023/11/02 03:43:22;;;;;;;0.30;0.20;;;;;;;1.50;74.15;100449.75;5036323;28;20486;-72
2023/11/02 03:46:08;;;;;;;0.20;0.10;;;;;;;1.50;74.56;100449.75;5037979;28;20540;-73
2023/11/02 03:48:40;;;;;;;0.57;0.52;;;;;;;1.52;73.92;100442.06;5037996;28;20067;-72
2023/11/02 03:51:22;;;;;;;0.20;0.10;;;;;;;1.52;74.05;100437.78;5036232;28;20678;-73
2023/11/02 03:54:05;;;;;;;0.20;0.10;;;;;;;1.52;74.55;100435.22;5036910;28;20057;-72
2023/11/02 03:56:51;;;;;;;0.28;0.10;;;;;;;1.53;73.80;100436.94;5036802;28;20050;-73
2023/11/02 03:59:24;;;;;;;0.15;0.10;;;;;;;1.54;74.25;100441.25;5040400;28;20049;-72
2023/11/02 04:01:59;;;;;;;0.93;0.20;;;;;;;1.55;74.30;100444.69;5041092;28;20057;-69
2023/11/02 04:04:41;;;;;;;3.97;0.10;;;;;;;1.54;74.56;100445.53;5032424;28;20110;-69
2023/11/02 04:07:28;;;;;;;1.92;0.13;;;;;;;1.56;74.56;100444.69;5041183;28;20049;-69
2023/11/02 04:10:06;;;;;;;0.17;0.10;;;;;;;1.57;74.54;100437.88;5043409;28;20055;-69
2023/11/02 04:12:39;;;;;;;0.10;0.10;;;;;;;1.57;74.29;100431.00;5028969;28;20056;-69
2023/11/02 04:15:09;;;;;;;0.10;0.10;;;;;;;1.57;74.13;100423.28;5036572;28;20047;-69
2023/11/02 04:17:37;;;;;;;0.47;0.10;;;;;;;1.57;73.64;100417.25;5035391;28;20406;-69
2023/11/02 04:20:05;;;;;;;1.85;0.17;;;;;;;1.59;73.31;100420.69;5040959;28;20129;-69
2023/11/02 04:22:32;;;;;;;0.20;0.10;;;;;;;1.58;73.77;100425.00;5039296;28;20099;-73
2023/11/02 04:25:00;;;;;;;0.10;0.10;;;;;;;1.60;74.10;100424.16;5033880;28;20491;-74
2023/11/02 04:27:27;;;;;;;0.13;0.10;;;;;;;1.61;73.42;100433.59;5043018;28;20045;-74
2023/11/02 04:29:54;;;;;;;0.17;0.08;;;;;;;1.61;73.35;100429.31;5038191;28;20450;-75
2023/11/02 04:32:21;;;;;;;0.10;0.10;;;;;;;1.62;73.45;100428.47;5040159;28;20055;-74
2023/11/02 04:34:48;;;;;;;0.20;0.00;;;;;;;1.62;73.86;100419.88;5041476;28;20098;-74
2023/11/02 04:37:16;;;;;;;0.10;0.10;;;;;;;1.64;73.30;100418.19;5037233;28;20042;-74
2023/11/02 04:39:43;;;;;;;0.22;0.10;;;;;;;1.65;73.61;100417.34;5036602;28;20044;-74
2023/11/02 04:42:12;;;;;;;0.08;0.08;;;;;;;1.65;73.25;100412.19;5036839;28;20056;-74
2023/11/02 04:44:38;;;;;;;0.20;0.10;;;;;;;1.65;72.93;100407.94;5037119;28;20614;-74
2023/11/02 04:47:06;;;;;;;0.00;0.00;;;;;;;1.65;73.06;100404.47;5037891;28;20049;-74
2023/11/02 04:49:34;;;;;;;0.20;0.10;;;;;;;1.66;73.28;100409.66;5035705;28;20059;-74
2023/11/02 04:52:02;;;;;;;0.65;0.10;;;;;;;1.66;73.17;100408.78;5039272;28;20104;-74
2023/11/02 04:54:30;;;;;;;0.13;0.10;;;;;;;1.67;73.23;100407.94;5038886;28;20534;-74
2023/11/02 04:56:57;;;;;;;0.13;0.08;;;;;;;1.68;73.45;100407.06;5040865;28;20045;-74
2023/11/02 04:59:25;;;;;;;1.50;0.10;;;;;;;1.68;73.22;100409.66;5037969;28;20049;-74
2023/11/02 05:01:52;;;;;;;0.57;0.20;;;;;;;1.67;73.27;100400.22;5041747;28;20052;-74
2023/11/02 05:04:19;;;;;;;0.10;0.10;;;;;;;1.68;73.21;100407.06;5042338;28;20053;-74
2023/11/02 05:06:46;;;;;;;0.30;0.10;;;;;;;1.68;73.36;100407.97;5038319;28;20475;-74
2023/11/02 05:09:13;;;;;;;0.28;0.22;;;;;;;1.68;73.42;100407.06;5034419;28;20045;-74
2023/11/02 05:11:39;;;;;;;0.55;0.20;;;;;;;1.69;73.21;100407.09;5033038;28;20057;-70
2023/11/02 05:14:06;;;;;;;0.17;0.10;;;;;;;1.70;73.24;100407.97;5037829;28;20740;-72
2023/11/02 05:16:35;;;;;;;0.35;0.20;;;;;;;1.70;73.26;100411.41;5036022;28;20052;-72
2023/11/02 05:19:02;;;;;;;0.20;0.10;;;;;;;1.70;73.04;100405.38;5039557;28;20076;-75
2023/11/02 05:21:29;;;;;;;0.15;0.10;;;;;;;1.70;73.41;100402.81;5040482;28;20051;-72
2023/11/02 05:23:56;;;;;;;0.40;0.20;;;;;;;1.70;73.19;100405.38;5039720;28;20056;-72
2023/11/02 05:26:23;;;;;;;0.10;0.10;;;;;;;1.70;72.85;100400.25;5044537;28;20045;-71
2023/11/02 05:28:51;;;;;;;0.30;0.20;;;;;;;1.71;73.52;100405.41;5041588;28;20045;-72
2023/11/02 05:31:18;;;;;;;1.27;0.20;;;;;;;1.71;73.04;100410.56;5043318;28;20494;-72
2023/11/02 05:33:46;;;;;;;0.10;0.10;;;;;;;1.72;73.18;100408.84;5043333;28;20053;-68
2023/11/02 05:36:13;;;;;;;0.30;0.20;;;;;;;1.73;73.44;100411.44;5043412;28;20383;-69
2023/11/02 05:38:40;;;;;;;0.40;0.30;;;;;;;1.72;72.87;100416.56;5040317;28;20041;-68
2023/11/02 05:41:07;;;;;;;0.60;0.10;;;;;;;1.73;73.21;100426.03;5036542;28;20049;-69
2023/11/02 05:43:34;;;;;;;0.13;0.10;;;;;;;1.73;72.79;100415.72;5042230;28;20526;-68
2023/11/02 05:46:02;;;;;;;0.10;0.10;;;;;;;1.73;73.20;100423.44;5044302;28;20090;-68
2023/11/02 05:48:29;;;;;;;0.10;0.10;;;;;;;1.73;73.18;100426.03;5038817;28;20053;-68
2023/11/02 05:50:57;;;;;;;0.10;0.10;;;;;;;1.74;73.19;100422.63;5040340;28;20084;-69
2023/11/02 05:53:24;;;;;;;0.10;0.10;;;;;;;1.74;73.34;100423.47;5040869;28;20041;-68
2023/11/02 05:55:51;;;;;;;0.85;0.10;;;;;;;1.76;73.22;100431.22;5044994;28;20052;-68
2023/11/02 05:58:17;;;;;;;1.70;0.10;;;;;;;1.77;73.33;100432.97;5041361;28;20451;-69
2023/11/02 06:00:44;;;;;;;0.65;0.13;;;;;;;1.76;72.90;100431.22;5037241;28;20049;-69
2023/11/02 06:03:11;;;;;;;1.83;0.10;;;;;;;1.77;73.35;100432.97;5047644;28;20079;-68
2023/11/02 06:05:38;;;;;;;0.75;0.10;;;;;;;1.78;72.83;100432.09;5041196;28;20505;-68
2023/11/02 06:08:06;;;;;;;0.60;0.10;;;;;;;1.77;73.22;100432.97;5034221;28;20053;-69
2023/11/02 06:10:33;;;;;;;0.30;0.10;;;;;;;1.76;72.79;100433.78;5035316;28;20049;-69
2023/11/02 06:13:00;;;;;;;3.90;0.10;;;;;;;1.77;73.25;100438.97;5041620;28;20068;-69
2023/11/02 06:15:27;;;;;;;0.20;0.10;;;;;;;1.78;72.85;100444.97;5039294;28;20419;-68
2023/11/02 06:17:53;;;;;;;0.30;0.17;;;;;;;1.79;73.35;100445.00;5034920;28;20053;-68
2023/11/02 06:20:20;;;;;;;3.40;0.10;;;;;;;1.80;73.25;100443.28;5040294;28;20465;-68
2023/11/02 06:22:47;;;;;;;0.30;0.17;;;;;;;1.81;73.31;100442.44;5042851;28;20127;-69
2023/11/02 06:25:16;;;;;;;0.10;0.10;;;;;;;1.84;72.90;100449.34;5042228;28;20056;-69
2023/11/02 06:27:43;;;;;;;2.25;0.10;;;;;;;1.84;73.22;100449.34;5040240;28;20045;-69
2023/11/02 06:30:11;;;;;;;0.10;0.10;;;;;;;1.85;73.42;100449.38;5038899;28;20057;-69
2023/11/02 06:32:37;;;;;;;0.10;0.10;;;;;;;1.85;73.01;100451.94;5037287;28;20047;-70
2023/11/02 06:35:05;;;;;;;0.20;0.20;;;;;;;1.87;73.19;100459.66;5037863;28;20415;-69
2023/11/02 06:37:32;;;;;;;0.20;0.10;;;;;;;1.86;73.14;100456.22;5033153;28;20480;-69
2023/11/02 06:39:59;;;;;;;0.45;0.10;;;;;;;1.87;73.28;100451.94;5042256;28;20127;-68
2023/11/02 06:42:28;;;;;;;0.10;0.10;;;;;;;1.87;73.45;100459.66;5039908;28;20072;-72
2023/11/02 06:44:55;;;;;;;0.30;0.10;;;;;;;1.86;73.43;100453.66;5037876;28;20067;-72
2023/11/02 06:47:22;;;;;;;0.28;0.10;;;;;;;1.87;73.12;100452.78;5042399;28;20041;-72
2023/11/02 06:49:49;;;;;;;0.20;0.10;;;;;;;1.87;72.91;100450.22;5039849;28;20609;-72
2023/11/02 06:52:16;;;;;;;0.20;0.10;;;;;;;1.87;73.25;100451.94;5042741;28;20756;-71
2023/11/02 06:54:44;;;;;;;0.10;0.10;;;;;;;1.87;72.90;100455.38;5035954;28;20418;-72
2023/11/02 06:57:11;;;;;;;0.47;0.10;;;;;;;1.87;73.43;100451.94;5038896;28;20081;-72
2023/11/02 06:59:39;;;;;;;0.55;0.10;;;;;;;1.88;73.18;100446.81;5042686;28;20497;-72
2023/11/02 07:02:09;;;;;;;0.20;0.13;;;;;;;1.89;73.03;100440.81;5032161;28;20057;-72
2023/11/02 07:04:36;;;;;;;27.80;1.23;;;;;;;1.90;73.67;100434.81;5042412;28;20417;-71
2023/11/02 07:07:03;;;;;;;0.60;0.10;;;;;;;1.90;73.42;100434.81;5037297;28;20047;-71
2023/11/02 07:09:30;;;;;;;0.10;0.10;;;;;;;1.89;73.48;100427.06;5043706;28;20140;-71
2023/11/02 07:11:57;;;;;;;1.75;0.20;;;;;;;1.89;73.54;100421.94;5042181;28;20049;-71
2023/11/02 07:14:24;;;;;;;0.10;0.10;;;;;;;1.88;73.17;100430.47;5044277;28;20387;-72
2023/11/02 07:16:52;;;;;;;0.10;0.08;;;;;;;1.86;73.22;100433.06;5040532;28;20177;-71
2023/11/02 07:19:19;;;;;;;0.32;0.20;;;;;;;1.85;73.07;100427.88;5037666;28;20052;-71
2023/11/02 07:21:46;;;;;;;0.20;0.10;;;;;;;1.85;73.22;100431.34;5041850;28;20044;-72
2023/11/02 07:24:13;;;;;;;0.25;0.10;;;;;;;1.84;73.30;100427.00;5039626;28;20045;-71
2023/11/02 07:26:39;;;;;;;1.42;0.13;;;;;;;1.83;73.58;100422.72;5042069;28;20048;-71
2023/11/02 07:29:06;;;;;;;0.45;0.35;;;;;;;1.85;73.79;100431.34;5035729;28;20056;-71
2023/11/02 07:31:33;;;;;;;0.03;0.00;;;;;;;1.84;73.64;100428.72;5034978;28;20049;-71
2023/11/02 07:34:01;;;;;;;0.55;0.10;;;;;;;1.85;73.41;100426.19;5040447;28;20064;-73
2023/11/02 07:36:28;;;;;;;6.13;0.10;;;;;;;1.85;73.71;100421.03;5045891;28;20051;-74
2023/11/02 07:38:55;;;;;;;0.30;0.10;;;;;;;1.86;73.85;100422.75;5040010;28;20041;-73
2023/11/02 07:41:22;;;;;;;23.98;9.98;;;;;;;1.86;73.48;100422.75;5038064;28;20057;-74
2023/11/02 07:43:49;;;;;;;0.40;0.20;;;;;;;1.86;73.78;100427.91;5039523;28;20053;-74
2023/11/02 07:46:15;;;;;;;0.20;0.10;;;;;;;1.86;73.90;100420.19;5042335;28;20048;-73
2023/11/02 07:48:42;;;;;;;0.95;0.10;;;;;;;1.87;73.90;100429.63;5039200;28;20079;-74
2023/11/02 07:51:13;;;;;;;3.53;0.30;;;;;;;1.88;73.84;100425.31;5040893;28;20049;-74
2023/11/02 07:53:40;;;;;;;0.10;0.10;;;;;;;1.88;74.13;100421.06;5034659;28;20056;-72
2023/11/02 07:56:08;;;;;;;0.28;0.20;;;;;;;1.90;73.85;100421.94;5039505;28;20417;-72
2023/11/02 07:58:36;;;;;;;0.22;0.10;;;;;;;1.91;73.98;100415.94;5039922;28;20049;-72
2023/11/02 08:01:02;;;;;;;0.13;0.10;;;;;;;1.91;73.79;100408.22;5044347;28;20049;-72
2023/11/02 08:03:30;;;;;;;0.20;0.10;;;;;;;1.94;74.27;100415.13;5036694;28;20146;-70
2023/11/02 08:05:57;;;;;;;0.22;0.10;;;;;;;1.95;74.28;100416.84;5032025;28;20410;-72
2023/11/02 08:08:25;;;;;;;0.38;0.20;;;;;;;1.96;74.29;100411.72;5033543;28;20045;-73
2023/11/02 08:10:52;;;;;;;0.20;0.10;;;;;;;1.97;73.76;100410.00;5036727;28;20512;-72
2023/11/02 08:13:19;;;;;;;0.52;0.10;;;;;;;1.99;74.26;100409.16;5040030;28;20041;-72
2023/11/02 08:15:45;;;;;;;0.10;0.10;;;;;;;1.99;74.21;100414.31;5034718;28;20110;-72
2023/11/02 08:18:12;;;;;;;0.30;0.10;;;;;;;1.98;73.96;100399.69;5036780;28;20061;-73
2023/11/02 08:20:39;;;;;;;0.25;0.10;;;;;;;1.99;73.88;100397.97;5037489;28;20067;-72
2023/11/02 08:23:06;;;;;;;0.10;0.10;;;;;;;1.99;74.53;100403.13;5039999;28;20094;-72
2023/11/02 08:25:34;;;;;;;0.45;0.10;;;;;;;1.99;74.25;100397.97;5038965;28;20053;-72
2023/11/02 08:28:02;;;;;;;0.10;0.03;;;;;;;1.98;74.46;100407.41;5038335;28;20056;-72
2023/11/02 08:30:29;;;;;;;0.45;0.10;;;;;;;1.99;74.04;100398.88;5034377;28;20057;-72
2023/11/02 08:32:56;;;;;;;0.15;0.13;;;;;;;1.99;74.60;100388.56;5038041;28;20064;-72
2023/11/02 08:35:23;;;;;;;2.72;0.20;;;;;;;2.01;74.65;100386.84;5037194;28;20071;-72
2023/11/02 08:37:50;;;;;;;0.47;0.13;;;;;;;2.02;74.37;100382.53;5037924;28;20048;-73
2023/11/02 08:40:18;;;;;;;0.25;0.10;;;;;;;2.03;74.39;100374.00;5037589;28;20037;-73
2023/11/02 08:42:46;;;;;;;0.28;0.15;;;;;;;2.05;74.73;100373.97;5039367;28;20045;-73
2023/11/02 08:45:14;;;;;;;0.20;0.10;;;;;;;2.06;74.80;100378.31;5042208;28;20401;-72
2023/11/02 08:47:41;;;;;;;0.13;0.10;;;;;;;2.08;74.53;100377.47;5040343;28;20045;-72
2023/11/02 08:50:09;;;;;;;0.10;0.10;;;;;;;2.08;74.85;100371.44;5041540;28;20412;-71
2023/11/02 08:52:37;;;;;;;0.30;0.20;;;;;;;2.09;74.81;100374.03;5039557;28;20049;-72
2023/11/02 08:55:04;;;;;;;0.10;0.10;;;;;;;2.13;75.04;100374.94;5041334;28;20095;-72
2023/11/02 08:57:31;;;;;;;0.65;0.10;;;;;;;2.14;75.10;100372.38;5040106;28;20049;-72
2023/11/02 09:00:00;;;;;;;0.45;0.10;;;;;;;2.16;75.12;100370.69;5034447;28;20054;-72
2023/11/02 09:02:27;;;;;;;0.40;0.10;;;;;;;2.19;74.86;100377.56;5043972;28;20064;-71
2023/11/02 09:04:54;;;;;;;0.22;0.20;;;;;;;2.20;75.00;100371.56;5035261;28;20064;-71
2023/11/02 09:07:21;;;;;;;0.20;0.10;;;;;;;2.21;74.86;100373.28;5037271;28;20048;-71
2023/11/02 09:09:48;;;;;;;0.20;0.10;;;;;;;2.22;75.05;100372.44;5043544;28;20425;-71
2023/11/02 09:12:15;;;;;;;0.40;0.10;;;;;;;2.22;75.41;100370.75;5043175;28;20644;-71
2023/11/02 09:14:42;;;;;;;0.10;0.10;;;;;;;2.23;75.11;100366.44;5040199;28;20475;-71
2023/11/02 09:17:10;;;;;;;0.22;0.10;;;;;;;2.24;75.28;100361.28;5039083;28;20044;-71
2023/11/02 09:19:37;;;;;;;1.40;0.10;;;;;;;2.26;75.81;100366.47;5039949;28;20415;-71
2023/11/02 09:22:04;;;;;;;0.50;0.30;;;;;;;2.28;75.16;100354.47;5042546;28;20055;-71
2023/11/02 09:24:31;;;;;;;0.20;0.20;;;;;;;2.30;75.67;100357.91;5042999;28;20057;-71
2023/11/02 09:26:57;;;;;;;0.17;0.10;;;;;;;2.32;75.57;100353.63;5042864;28;20044;-72
2023/11/02 09:29:25;;;;;;;0.75;0.30;;;;;;;2.35;75.47;100355.38;5036655;28;20049;-72
2023/11/02 09:31:51;;;;;;;0.95;0.10;;;;;;;2.36;75.82;100364.81;5042683;28;20048;-72
2023/11/02 09:34:20;;;;;;;0.20;0.10;;;;;;;2.38;75.51;100347.66;5041816;28;20053;-72
2023/11/02 09:36:48;;;;;;;2.60;0.15;;;;;;;2.39;75.76;100349.38;5038933;28;20054;-72
2023/11/02 09:39:15;;;;;;;0.88;0.20;;;;;;;2.41;76.01;100353.69;5041892;28;20513;-72
2023/11/02 09:41:42;;;;;;;1.58;0.13;;;;;;;2.43;75.83;100357.16;5038165;28;20051;-72
2023/11/02 09:44:09;;;;;;;1.23;0.10;;;;;;;2.46;75.88;100370.06;5044886;28;20053;-72
2023/11/02 09:46:36;;;;;;;0.30;0.10;;;;;;;2.48;75.89;100370.94;5039370;28;20486;-72
2023/11/02 09:49:03;;;;;;;0.65;0.10;;;;;;;2.52;76.01;100369.25;5048091;28;20060;-72
2023/11/02 09:51:32;;;;;;;2.10;0.55;;;;;;;2.54;76.03;100372.72;5035485;28;20059;-72
2023/11/02 09:54:01;;;;;;;0.47;0.10;;;;;;;2.55;75.89;100366.69;5043442;28;20050;-68
2023/11/02 09:56:29;;;;;;;0.20;0.10;;;;;;;2.57;76.26;100356.41;5048262;28;20095;-69
2023/11/02 09:58:57;;;;;;;0.43;0.10;;;;;;;2.58;76.15;100355.56;5033764;28;20049;-68
2023/11/02 10:01:25;;;;;;;0.20;0.10;;;;;;;2.60;76.41;100361.59;5042542;28;20498;-69
2023/11/02 10:03:51;;;;;;;0.60;0.08;;;;;;;2.61;75.90;100355.56;5035372;28;20079;-69
2023/11/02 10:06:18;;;;;;;0.10;0.10;;;;;;;2.62;76.23;100355.59;5039835;28;20049;-68
2023/11/02 10:08:46;;;;;;;0.28;0.17;;;;;;;2.64;76.34;100350.44;5042507;28;20066;-69
2023/11/02 10:11:14;;;;;;;121.43;9.45;;;;;;;2.66;76.50;100351.31;5042807;28;20139;-69
2023/11/02 10:13:42;;;;;;;11.45;0.57;;;;;;;2.68;76.43;100344.47;5039405;28;20188;-72
2023/11/02 10:16:09;;;;;;;0.52;0.20;;;;;;;2.69;76.91;100341.88;5042329;28;20049;-71
2023/11/02 10:18:36;;;;;;;41.70;5.18;;;;;;;2.72;76.30;100335.00;5042268;28;20053;-72
2023/11/02 10:21:05;;;;;;;0.73;0.10;;;;;;;2.74;76.38;100338.47;5037567;28;20045;-72
2023/11/02 10:26:34;;;;;;;0.30;0.10;;;;;;;2.78;76.54;100335.91;5143178;27;20144;-71
2023/11/02 10:29:02;;;;;;;0.08;0.05;;;;;;;2.81;76.65;100324.75;5126059;28;20067;-72
2023/11/02 10:31:33;;;;;;;1.38;0.20;;;;;;;2.83;76.49;100323.91;5126415;28;20044;-72
2023/11/02 10:34:00;;;;;;;1.50;0.20;;;;;;;2.84;76.63;100311.88;5126446;28;20043;-72
2023/11/02 10:36:27;;;;;;;0.90;0.10;;;;;;;2.88;76.65;100311.06;5127112;28;20043;-71
2023/11/02 10:38:56;;;;;;;1.33;0.15;;;;;;;2.89;77.09;100313.63;5100594;28;20040;-71
2023/11/02 10:41:23;;;;;;;1.65;0.10;;;;;;;2.92;76.89;100318.78;5093916;28;20052;-72
2023/11/02 10:43:52;;;;;;;0.10;0.10;;;;;;;2.92;76.92;100313.63;5093736;28;20060;-72
2023/11/02 10:46:20;;;;;;;1.02;0.10;;;;;;;2.95;76.92;100307.63;5094317;28;20049;-72
2023/11/02 10:48:53;;;;;;;2.65;0.13;;;;;;;2.98;76.92;100306.78;5101399;28;20047;-72
2023/11/02 10:51:25;;;;;;;0.45;0.10;;;;;;;2.98;77.26;100306.78;5098850;28;20063;-72
2023/11/02 10:54:03;;;;;;;0.60;0.20;;;;;;;3.01;76.91;100304.22;5101163;28;20068;-72
2023/11/02 10:56:40;;;;;;;0.20;0.20;;;;;;;3.04;77.29;100311.97;5100195;28;20052;-72
2023/11/02 10:59:09;;;;;;;0.40;0.20;;;;;;;3.05;77.57;100306.84;5096607;28;20068;-73
2023/11/02 11:01:37;;;;;;;0.68;0.20;;;;;;;3.08;77.44;100306.84;5101329;28;20040;-72
2023/11/02 11:04:05;;;;;;;0.28;0.10;;;;;;;3.11;77.27;100303.41;5100342;28;20079;-69
2023/11/02 11:06:35;;;;;;;1.42;0.40;;;;;;;3.11;77.35;100300.84;5095098;28;20040;-69
2023/11/02 11:09:02;;;;;;;11.43;1.73;;;;;;;3.18;77.37;100304.28;5097504;28;20502;-69
2023/11/02 11:11:31;;;;;;;4.47;0.20;;;;;;;3.20;77.70;100308.59;5095216;28;20571;-69
2023/11/02 11:13:58;;;;;;;3.88;0.75;;;;;;;3.24;77.69;100301.72;5093308;28;20651;-69
2023/11/02 11:16:28;;;;;;;0.32;0.30;;;;;;;3.27;77.61;100300.03;5094520;28;20051;-69
2023/11/02 11:18:54;;;;;;;238.35;18.17;;;;;;;3.30;77.87;100294.91;5096973;28;20047;-69
2023/11/02 11:21:22;;;;;;;65.32;4.90;;;;;;;3.32;77.88;100288.00;5093644;28;20048;-69
2023/11/02 11:23:49;;;;;;;2.55;0.20;;;;;;;3.35;77.79;100294.88;5090387;28;20044;-72
2023/11/02 11:26:16;;;;;;;0.20;0.10;;;;;;;3.38;78.05;100293.16;5092408;28;20060;-72
2023/11/02 11:28:43;;;;;;;0.10;0.10;;;;;;;3.43;78.18;100300.09;5095157;28;20052;-72
2023/11/02 11:31:43;;;;;;;1.42;0.40;;;;;;;3.46;78.31;100295.78;5096347;28;20051;-73
2023/11/02 11:34:11;;;;;;;0.52;0.10;;;;;;;3.51;78.21;100293.22;5097388;28;20044;-72
2023/11/02 11:36:38;;;;;;;28.08;9.18;;;;;;;3.54;78.48;100291.50;5087365;28;20049;-72
2023/11/02 11:39:34;;;;;;;0.35;0.20;;;;;;;3.59;78.31;100292.38;5079044;28;20505;-72
2023/11/02 11:42:01;;;;;;;28.25;1.75;;;;;;;3.63;78.31;100293.25;5081960;28;20136;-70
2023/11/02 11:44:28;;;;;;;0.57;0.35;;;;;;;3.63;78.22;100288.09;5079863;28;20058;-72
2023/11/02 11:46:56;;;;;;;4.57;0.50;;;;;;;3.68;78.38;100283.78;5079542;28;20052;-72
2023/11/02 11:49:49;;;;;;;1.00;0.20;;;;;;;3.73;78.19;100283.78;5077080;28;20044;-72
2023/11/02 11:52:24;;;;;;;0.60;0.10;;;;;;;3.75;78.54;100279.50;5079239;28;20073;-72
2023/11/02 11:54:50;;;;;;;;;;;;;;;3.78;77.78;100272.59;5076887;28;20048;-72